ADDS METAR Data INFO
IDs: Format: Raw Decoded Include TAF

Data at: 0935 UTC 11 Dec 2017

KHOB 110915Z AUTO 28008KT 10SM CLR M02/M08 A3037 RMK AO2
KHOB 110855Z AUTO 28007KT 10SM CLR M02/M08 A3037 RMK AO2
KHOB 110835Z AUTO 28006KT 10SM CLR M00/M07 A3037 RMK AO2
KHOB 110815Z AUTO 26006KT 10SM CLR 00/M07 A3037 RMK AO2
KHOB 110755Z AUTO 27006KT 10SM CLR 00/M07 A3037 RMK AO2
KHOB 110735Z AUTO 26006KT 10SM CLR 00/M06 A3038 RMK AO2
KHOB 110715Z AUTO 24007KT 10SM CLR 00/M07 A3038 RMK AO2
KHOB 110655Z AUTO 25007KT 10SM CLR 00/M07 A3039 RMK AO2
KHOB 110635Z AUTO 27009KT 10SM CLR M00/M07 A3039 RMK AO2
KHOB 110615Z AUTO 26008KT 10SM CLR 00/M07 A3039 RMK AO2
KHOB 110555Z AUTO 26007KT 10SM CLR 01/M07 A3039 RMK AO2
KHOB 110535Z AUTO 27008KT 10SM CLR 02/M07 A3040 RMK AO2
KHOB 110515Z AUTO 27007KT 10SM CLR 00/M08 A3041 RMK AO2
KHOB 110455Z AUTO 26007KT 10SM CLR 00/M08 A3041 RMK AO2
KHOB 110435Z AUTO 27009KT 10SM CLR 01/M08 A3040 RMK AO2
KHOB 110415Z AUTO 25008KT 10SM CLR 01/M09 A3040 RMK AO2
KHOB 110355Z AUTO 25008KT 10SM CLR 01/M10 A3040 RMK AO2
KHOB 110335Z AUTO 25006KT 10SM CLR 03/M10 A3039 RMK AO2
KHOB 110315Z AUTO 25005KT 10SM CLR 03/M11 A3039 RMK AO2
KHOB 110255Z AUTO 26007KT 10SM CLR 02/M12 A3040 RMK AO2
KHOB 110235Z AUTO 25007KT 10SM CLR 03/M12 A3040 RMK AO2
KHOB 110215Z AUTO 24008KT 10SM CLR 04/M13 A3040 RMK AO2
KHOB 110155Z AUTO 24010KT 10SM CLR 04/M13 A3040 RMK AO2
KHOB 110135Z AUTO 24006KT 10SM CLR 05/M14 A3040 RMK AO2
KHOB 110115Z AUTO 25007KT 10SM CLR 05/M14 A3040 RMK AO2
KHOB 110050Z 21006KT 10SM SKC 06/M14 A3039
KHOB 102350Z 21006KT 10SM SKC 11/M15 A3038
KHOB 102250Z 21006KT 10SM SKC 17/M17 A3038
KHOB 102150Z 23009KT 10SM SKC 19/M18 A3038
KHOB 102050Z 23007G15KT 10SM SKC 19/M19 A3038
KHOB 101950Z 25010KT 10SM SKC 19/M16 A3041
KHOB 101850Z 23011KT 10SM SKC 18/M17 A3044
KHOB 101750Z 23011KT 10SM SKC 18/M16 A3046
KHOB 101650Z 25008KT 10SM SKC 16/M12 A3047
KHOB 101550Z VRB04KT 10SM SKC 09/M08 A3047
KHOB 101450Z 31004KT 10SM SKC 02/M09 A3046
KHOB 101350Z 34006KT 10SM SKC M05/M09 A3045
KHOB 101250Z 30005KT 10SM SKC M03/M09 A3043
KHOB 101235Z AUTO 33004KT 10SM CLR M03/M09 A3043 RMK AO2
KHOB 101215Z AUTO 32009KT 10SM CLR M03/M09 A3042 RMK AO2
KHOB 101155Z AUTO 33009KT 10SM CLR M03/M09 A3042 RMK AO2
KHOB 101135Z AUTO 33009KT 10SM CLR M03/M09 A3041 RMK AO2
KHOB 101115Z AUTO 33009KT 10SM CLR M03/M08 A3042 RMK AO2
KHOB 101055Z AUTO 33007KT 10SM CLR M03/M09 A3041 RMK AO2
KHOB 101035Z AUTO 33004KT 10SM CLR M03/M09 A3042 RMK AO2
KHOB 101015Z AUTO 32006KT 10SM CLR M03/M09 A3041 RMK AO2
KHOB 100955Z AUTO 33003KT 10SM CLR M03/M09 A3041 RMK AO2
KHOB 100935Z AUTO 33008KT 10SM CLR M04/M09 A3041 RMK AO2
KHOB 100915Z AUTO 33008KT 10SM CLR M04/M09 A3041 RMK AO2
KHOB 100855Z AUTO 34004KT 10SM CLR M03/M09 A3041 RMK AO2
KHOB 100835Z AUTO 34006KT 10SM CLR M03/M09 A3041 RMK AO2
KHOB 100815Z AUTO 32006KT 10SM CLR M03/M10 A3040 RMK AO2
KHOB 100755Z AUTO 32006KT 10SM CLR M03/M10 A3041 RMK AO2
KHOB 100735Z AUTO 34006KT 10SM CLR M03/M10 A3041 RMK AO2
KHOB 100715Z AUTO 34007KT 10SM CLR M02/M10 A3041 RMK AO2
KHOB 100655Z AUTO 32007KT 10SM CLR M01/M10 A3041 RMK AO2
KHOB 100635Z AUTO 31008KT 10SM CLR M01/M11 A3041 RMK AO2
KHOB 100615Z AUTO 29008KT 10SM CLR M01/M10 A3041 RMK AO2
KHOB 100555Z AUTO 31005KT 10SM CLR M00/M11 A3042 RMK AO2
KHOB 100535Z AUTO 33007KT 10SM CLR M01/M10 A3042 RMK AO2
KHOB 100515Z AUTO 33007KT 10SM CLR M01/M10 A3042 RMK AO2
KHOB 100455Z AUTO 33007KT 10SM CLR M01/M10 A3041 RMK AO2
KHOB 100435Z AUTO 34007KT 10SM CLR 00/M10 A3041 RMK AO2
KHOB 100415Z AUTO 34007KT 10SM CLR 00/M10 A3042 RMK AO2
KHOB 100355Z AUTO 33009KT 10SM CLR 02/M09 A3042 RMK AO2
KHOB 100335Z AUTO 30010KT 10SM CLR 03/M09 A3041 RMK AO2
KHOB 100315Z AUTO 30008KT 10SM CLR 03/M10 A3041 RMK AO2
KHOB 100255Z AUTO 28009KT 10SM CLR 04/M11 A3041 RMK AO2
KHOB 100235Z AUTO 25007KT 10SM CLR 03/M12 A3040 RMK AO2
KHOB 100215Z AUTO 31004KT 10SM CLR 03/M11 A3040 RMK AO2
KHOB 100155Z AUTO 00000KT 10SM CLR 05/M12 A3040 RMK AO2
KHOB 100135Z AUTO 00000KT 10SM CLR 05/M12 A3039 RMK AO2
KHOB 100115Z AUTO 09003KT 10SM CLR 08/M13 A3039 RMK AO2
KHOB 100050Z 00000KT 10SM SKC 08/M14 A3037
KHOB 092350Z 03005KT 10SM SKC 13/M15 A3036
KHOB 092250Z 01006KT 10SM SKC 17/M18 A3035
KHOB 092150Z 36009KT 10SM SKC 18/M18 A3035